createdAt,value
2019-04-10T00:01:55.141Z,4.40
2019-04-10T00:05:20.031Z,4.30
2019-04-10T00:08:44.271Z,4.30
2019-04-10T00:12:09.443Z,4.30
2019-04-10T00:15:33.429Z,4.30
2019-04-10T00:18:58.157Z,4.20
2019-04-10T00:22:22.263Z,4.10
2019-04-10T00:25:46.184Z,4.10
2019-04-10T00:29:10.096Z,4.20
2019-04-10T00:32:34.207Z,4.10
2019-04-10T00:35:59.303Z,4.00
2019-04-10T00:39:23.393Z,4.00
2019-04-10T00:42:47.379Z,4.00
2019-04-10T00:46:11.326Z,4.00
2019-04-10T00:49:35.124Z,3.90
2019-04-10T00:52:58.971Z,3.90
2019-04-10T00:56:22.851Z,3.80
2019-04-10T00:59:46.728Z,3.80
2019-04-10T01:03:13.385Z,3.70
2019-04-10T01:06:37.844Z,3.70
2019-04-10T01:10:02.156Z,3.60
2019-04-10T01:13:27.105Z,3.50
2019-04-10T01:16:51.513Z,3.50
2019-04-10T01:20:15.641Z,3.50
2019-04-10T01:23:39.625Z,3.40
2019-04-10T01:27:03.460Z,3.30
2019-04-10T01:30:28.468Z,3.30
2019-04-10T01:33:52.701Z,3.30
2019-04-10T01:37:16.672Z,3.30
2019-04-10T01:40:41.357Z,3.30
2019-04-10T01:44:05.661Z,3.30
2019-04-10T01:47:29.546Z,3.30
2019-04-10T01:50:53.554Z,3.20
2019-04-10T01:54:17.441Z,3.20
2019-04-10T01:57:41.251Z,3.20
2019-04-10T02:01:10.248Z,3.20
2019-04-10T02:04:35.122Z,3.10
2019-04-10T02:08:06.424Z,3.10
2019-04-10T02:11:24.507Z,3.10
2019-04-10T02:14:48.862Z,3.00
2019-04-10T02:18:12.953Z,3.00
2019-04-10T02:21:37.952Z,2.90
2019-04-10T02:25:03.305Z,2.90
2019-04-10T02:28:27.338Z,2.90
2019-04-10T02:31:52.647Z,2.90
2019-04-10T02:35:19.708Z,2.90
2019-04-10T02:38:57.290Z,3.00
2019-04-10T02:42:08.266Z,3.00
2019-04-10T02:45:32.661Z,3.10
2019-04-10T02:48:57.844Z,3.10
2019-04-10T02:52:22.558Z,3.10
2019-04-10T02:55:47.477Z,3.00
2019-04-10T02:59:13.140Z,3.00
2019-04-10T03:02:38.783Z,3.00
2019-04-10T03:06:02.697Z,3.10
2019-04-10T03:09:41.841Z,3.10
2019-04-10T03:12:52.673Z,3.10
2019-04-10T03:16:17.670Z,3.00
2019-04-10T03:19:41.483Z,3.00
2019-04-10T03:23:05.336Z,3.10
2019-04-10T03:26:29.894Z,3.10
2019-04-10T03:29:53.931Z,3.10
2019-04-10T03:33:26.713Z,3.10
2019-04-10T03:36:47.664Z,3.20
2019-04-10T03:40:11.526Z,3.20
2019-04-10T03:43:36.114Z,3.30
2019-04-10T03:47:00.794Z,3.30
2019-04-10T03:50:25.769Z,3.40
2019-04-10T03:53:50.731Z,3.40
2019-04-10T03:57:14.714Z,3.50
2019-04-10T04:00:38.606Z,3.60
2019-04-10T04:04:02.369Z,3.60
2019-04-10T04:07:27.267Z,3.70
2019-04-10T04:10:51.344Z,3.80
2019-04-10T04:14:15.144Z,3.80
2019-04-10T04:17:38.826Z,3.90
2019-04-10T04:21:03.481Z,4.00
2019-04-10T04:24:28.138Z,4.10
2019-04-10T04:27:52.046Z,4.10
2019-04-10T04:31:16.028Z,4.20
2019-04-10T04:34:39.859Z,4.30
2019-04-10T04:38:03.782Z,4.30
2019-04-10T04:41:27.502Z,4.40
2019-04-10T04:44:52.108Z,4.50
2019-04-10T04:48:16.938Z,4.50
2019-04-10T04:51:41.693Z,4.50
2019-04-10T04:55:06.021Z,4.60
2019-04-10T04:58:30.528Z,4.60
2019-04-10T05:01:55.005Z,4.40
2019-04-10T05:05:19.046Z,4.50
2019-04-10T05:08:43.209Z,4.60
2019-04-10T05:12:07.232Z,4.60
2019-04-10T05:15:31.234Z,4.60
2019-04-10T05:18:56.153Z,4.60
2019-04-10T05:22:19.903Z,4.70
2019-04-10T05:25:43.711Z,4.70
2019-04-10T05:29:07.484Z,4.60
2019-04-10T05:32:31.404Z,4.70
2019-04-10T05:35:55.264Z,4.70
2019-04-10T05:39:19.115Z,4.70
2019-04-10T05:42:43.039Z,4.80
2019-04-10T05:46:07.141Z,4.90
2019-04-10T05:49:31.244Z,4.90
2019-04-10T05:52:55.889Z,4.90
2019-04-10T05:56:20.680Z,4.80
2019-04-10T05:59:44.539Z,4.80
2019-04-10T06:03:08.247Z,4.90
2019-04-10T06:06:33.028Z,4.90
2019-04-10T06:10:02.010Z,5.00
2019-04-10T06:13:23.149Z,5.00
2019-04-10T06:16:46.969Z,4.90
2019-04-10T06:20:14.050Z,4.60
2019-04-10T06:23:37.645Z,4.70
2019-04-10T06:27:01.865Z,4.70
2019-04-10T06:30:25.966Z,4.60
2019-04-10T06:33:50.590Z,4.80
2019-04-10T06:37:15.676Z,4.90
2019-04-10T06:40:39.937Z,5.00
2019-04-10T06:44:03.966Z,5.30
2019-04-10T06:47:28.864Z,5.30
2019-04-10T06:50:53.631Z,5.30
2019-04-10T06:54:17.542Z,5.40
2019-04-10T06:57:50.875Z,5.30
2019-04-10T07:01:08.319Z,5.40
2019-04-10T07:04:43.127Z,5.60
2019-04-10T07:08:10.018Z,5.90
2019-04-10T07:11:27.908Z,6.10
2019-04-10T07:14:50.827Z,5.80
2019-04-10T07:18:18.225Z,5.80
2019-04-10T07:21:42.617Z,6.30
2019-04-10T07:25:09.331Z,6.20
2019-04-10T07:28:33.551Z,5.90
2019-04-10T07:31:58.408Z,6.20
2019-04-10T07:35:23.587Z,5.90
2019-04-10T07:38:47.493Z,6.40
2019-04-10T07:42:11.698Z,6.80
2019-04-10T07:45:35.829Z,6.80
2019-04-10T07:49:00.664Z,7.20
2019-04-10T07:52:25.634Z,6.80
2019-04-10T07:55:58.450Z,6.60
2019-04-10T07:59:15.009Z,6.80
2019-04-10T08:02:40.595Z,6.80
2019-04-10T08:06:04.819Z,6.90
2019-04-10T08:09:29.151Z,7.20
2019-04-10T08:12:54.290Z,7.40
2019-04-10T08:16:19.002Z,7.60
2019-04-10T08:19:43.165Z,7.70
2019-04-10T08:23:08.893Z,9.10
2019-04-10T08:26:33.217Z,8.70
2019-04-10T08:29:56.994Z,9.70
2019-04-10T08:33:21.820Z,10.40
2019-04-10T08:36:47.895Z,10.50
2019-04-10T08:40:13.500Z,10.70
2019-04-10T08:43:37.588Z,10.40
2019-04-10T08:47:02.380Z,12.70
2019-04-10T08:50:26.441Z,12.80
2019-04-10T08:53:54.113Z,11.40
2019-04-10T08:57:17.149Z,11.60
2019-04-10T09:00:41.171Z,11.00
2019-04-10T09:04:05.703Z,14.10
2019-04-10T09:07:31.181Z,16.70
2019-04-10T09:10:56.383Z,14.30
2019-04-10T09:14:21.070Z,12.00
2019-04-10T09:17:45.139Z,12.10
2019-04-10T09:21:09.085Z,12.20
2019-04-10T09:24:34.113Z,12.10
2019-04-10T09:28:00.214Z,12.20
2019-04-10T09:31:24.294Z,12.40
2019-04-10T09:34:48.351Z,13.20
2019-04-10T09:38:15.259Z,13.60
2019-04-10T09:41:41.650Z,12.90
2019-04-10T09:45:06.364Z,12.10
2019-04-10T09:48:31.592Z,11.90
2019-04-10T09:51:56.464Z,12.40
2019-04-10T09:55:20.438Z,12.90
2019-04-10T09:58:44.800Z,13.70
2019-04-10T10:02:09.229Z,14.20
2019-04-10T10:05:33.484Z,13.80
2019-04-10T10:08:58.471Z,13.60
2019-04-10T10:12:23.533Z,13.40
2019-04-10T10:15:47.549Z,14.70
2019-04-10T10:19:12.003Z,15.10
2019-04-10T10:22:36.936Z,13.50
2019-04-10T10:26:02.333Z,14.00
2019-04-10T10:29:26.555Z,16.00
2019-04-10T10:32:51.031Z,15.20
2019-04-10T10:36:15.853Z,16.30
2019-04-10T10:39:41.077Z,15.30
2019-04-10T10:43:04.968Z,14.40
2019-04-10T10:46:29.100Z,15.50
2019-04-10T10:49:53.347Z,16.60
2019-04-10T10:53:17.367Z,18.50
2019-04-10T10:56:42.504Z,18.50
2019-04-10T11:03:36.206Z,18.20
2019-04-10T11:07:01.173Z,17.50
2019-04-10T11:10:27.464Z,16.00
2019-04-10T11:13:50.783Z,14.40
2019-04-10T11:17:15.805Z,15.90
2019-04-10T11:20:40.236Z,17.30
2019-04-10T11:24:04.199Z,16.90
2019-04-10T11:27:29.442Z,16.90
2019-04-10T11:30:54.246Z,16.00
2019-04-10T11:34:19.233Z,15.00
2019-04-10T11:37:46.857Z,14.00
2019-04-10T11:41:08.643Z,15.40
2019-04-10T11:44:33.601Z,16.70
2019-04-10T11:47:58.990Z,16.60
2019-04-10T11:51:26.325Z,16.40
2019-04-10T11:54:50.038Z,16.60
2019-04-10T12:01:39.556Z,14.30
2019-04-10T12:05:09.507Z,12.90
2019-04-10T12:09:01.763Z,12.20
2019-04-10T12:11:55.750Z,12.50
2019-04-10T12:15:20.510Z,12.20
2019-04-10T12:18:44.429Z,12.00
2019-04-10T12:22:08.190Z,12.10
2019-04-10T12:25:32.194Z,11.70
2019-04-10T12:28:56.179Z,12.00
2019-04-10T12:32:20.835Z,12.40
2019-04-10T12:35:45.742Z,12.20
2019-04-10T12:39:10.566Z,11.70
2019-04-10T12:42:34.590Z,11.10
2019-04-10T12:45:58.661Z,11.50
2019-04-10T12:49:23.433Z,11.10
2019-04-10T12:52:47.918Z,11.20
2019-04-10T12:56:13.657Z,11.40
2019-04-10T12:59:37.834Z,11.70
2019-04-10T13:03:02.986Z,12.20
2019-04-10T13:06:27.497Z,12.60
2019-04-10T13:09:51.311Z,12.10
2019-04-10T13:13:15.203Z,11.80
2019-04-10T13:16:40.347Z,11.80
2019-04-10T13:20:07.701Z,12.10
2019-04-10T13:23:32.959Z,12.30
2019-04-10T13:26:56.882Z,12.20
2019-04-10T13:30:20.984Z,11.60
2019-04-10T13:33:44.845Z,11.60
2019-04-10T13:37:08.743Z,11.70
2019-04-10T13:40:32.575Z,11.90
2019-04-10T13:43:56.783Z,11.60
2019-04-10T13:47:21.700Z,10.80
2019-04-10T13:50:46.610Z,10.50
2019-04-10T13:54:10.826Z,10.60
2019-04-10T13:57:34.786Z,10.70
2019-04-10T14:00:58.865Z,11.00
2019-04-10T14:04:23.072Z,10.80
2019-04-10T14:07:47.262Z,11.00
2019-04-10T14:11:11.326Z,11.20
2019-04-10T14:14:36.980Z,11.20
2019-04-10T14:18:01.942Z,11.30
2019-04-10T14:21:27.046Z,11.40
2019-04-10T14:24:52.185Z,11.20
2019-04-10T14:28:16.875Z,11.00
2019-04-10T14:31:44.695Z,10.90
2019-04-10T14:35:09.911Z,10.80
2019-04-10T14:38:34.887Z,10.70
2019-04-10T14:41:58.923Z,10.40
2019-04-10T14:45:25.518Z,10.50
2019-04-10T14:48:49.609Z,10.40
2019-04-10T14:52:13.754Z,10.50
2019-04-10T14:55:37.752Z,10.50
2019-04-10T14:59:02.082Z,10.40
2019-04-10T15:02:28.153Z,10.30
2019-04-10T15:05:54.451Z,10.30
2019-04-10T15:09:25.423Z,10.20
2019-04-10T15:12:47.942Z,10.20
2019-04-10T15:16:12.635Z,10.20
2019-04-10T15:19:40.705Z,10.00
2019-04-10T15:23:05.009Z,9.90
2019-04-10T15:26:30.104Z,10.00
2019-04-10T15:29:54.716Z,10.00
2019-04-10T15:33:20.560Z,9.90
2019-04-10T15:36:45.909Z,9.70
2019-04-10T15:40:18.511Z,9.60
2019-04-10T15:43:36.975Z,9.60
2019-04-10T15:47:11.611Z,9.40
2019-04-10T15:50:28.386Z,9.40
2019-04-10T15:53:53.313Z,9.30
2019-04-10T15:57:18.457Z,9.20
2019-04-10T16:00:44.118Z,9.20
2019-04-10T16:04:08.609Z,9.10
2019-04-10T16:07:34.244Z,9.10
2019-04-10T16:11:03.619Z,9.10
2019-04-10T16:14:31.494Z,9.20
2019-04-10T16:18:01.003Z,9.10
2019-04-10T16:21:24.983Z,9.10
2019-04-10T16:24:49.123Z,9.00
2019-04-10T16:28:14.600Z,9.00
2019-04-10T16:31:39.644Z,8.90
2019-04-10T16:35:05.203Z,8.70
2019-04-10T16:38:29.152Z,8.60
2019-04-10T16:41:52.948Z,8.60
2019-04-10T16:45:17.847Z,8.60
2019-04-10T16:48:42.182Z,8.50
2019-04-10T16:52:07.117Z,8.50
2019-04-10T16:55:31.019Z,8.40
2019-04-10T16:58:54.906Z,8.40
2019-04-10T17:02:19.995Z,8.30
2019-04-10T17:05:43.900Z,8.20
2019-04-10T17:10:18.214Z,8.20
2019-04-10T17:13:38.487Z,8.20
2019-04-10T17:17:02.417Z,8.10
2019-04-10T17:20:28.973Z,8.10
2019-04-10T17:23:53.220Z,8.10
2019-04-10T17:27:17.363Z,8.10
2019-04-10T17:30:42.275Z,8.00
2019-04-10T17:34:06.318Z,8.00
2019-04-10T17:37:30.314Z,7.90
2019-04-10T17:40:57.096Z,7.90
2019-04-10T17:44:19.649Z,7.90
2019-04-10T17:47:47.224Z,7.80
2019-04-10T17:51:12.140Z,7.70
2019-04-10T17:54:36.679Z,7.70
2019-04-10T17:58:01.140Z,7.70
2019-04-10T18:01:27.056Z,7.60
2019-04-10T18:04:51.319Z,7.60
2019-04-10T18:08:16.616Z,7.60
2019-04-10T18:11:41.533Z,7.60
2019-04-10T18:15:08.555Z,7.60
2019-04-10T18:18:35.931Z,7.50
2019-04-10T18:22:05.371Z,7.50
2019-04-10T18:25:34.041Z,7.50
2019-04-10T18:28:59.710Z,7.50
2019-04-10T18:32:25.495Z,7.40
2019-04-10T18:35:51.175Z,7.40
2019-04-10T18:39:17.097Z,7.30
2019-04-10T18:42:41.999Z,7.30
2019-04-10T18:46:12.903Z,7.30
2019-04-10T18:49:32.292Z,7.20
2019-04-10T18:52:57.116Z,7.20
2019-04-10T18:56:21.174Z,7.20
2019-04-10T19:00:02.921Z,7.10
2019-04-10T19:03:29.638Z,7.10
2019-04-10T19:07:02.358Z,7.10
2019-04-10T19:10:26.615Z,7.20
2019-04-10T19:13:50.986Z,7.10
2019-04-10T19:17:15.403Z,7.00
2019-04-10T19:20:40.589Z,7.00
2019-04-10T19:24:05.861Z,7.00
2019-04-10T19:27:30.082Z,7.00
2019-04-10T19:31:08.823Z,6.90
2019-04-10T19:34:27.527Z,6.90
2019-04-10T19:37:52.937Z,6.90
2019-04-10T19:41:25.128Z,6.90
2019-04-10T19:44:43.526Z,6.90
2019-04-10T19:48:08.990Z,6.90
2019-04-10T19:51:34.277Z,6.90
2019-04-10T19:54:59.535Z,6.90
2019-04-10T19:58:23.947Z,6.80
2019-04-10T20:01:48.588Z,6.90
2019-04-10T20:05:13.384Z,6.80
2019-04-10T20:08:37.222Z,6.80
2019-04-10T20:12:02.515Z,6.80
2019-04-10T20:15:26.744Z,6.80
2019-04-10T20:18:50.843Z,6.80
2019-04-10T20:22:14.787Z,6.80
2019-04-10T20:25:38.856Z,6.70
2019-04-10T20:29:04.488Z,6.70
2019-04-10T20:32:28.574Z,6.70
2019-04-10T20:35:52.962Z,6.70
2019-04-10T20:39:18.308Z,6.70
2019-04-10T20:42:42.923Z,6.60
2019-04-10T20:46:07.202Z,6.60
2019-04-10T20:49:31.299Z,6.60
2019-04-10T20:52:55.806Z,6.60
2019-04-10T20:56:19.951Z,6.60
2019-04-10T20:59:44.636Z,6.60
2019-04-10T21:03:09.258Z,6.50
2019-04-10T21:06:33.846Z,6.50
2019-04-10T21:09:58.748Z,6.50
2019-04-10T21:13:23.501Z,6.50
2019-04-10T21:16:47.679Z,6.40
2019-04-10T21:20:13.291Z,6.40
2019-04-10T21:23:38.051Z,6.40
2019-04-10T21:27:02.079Z,6.40
2019-04-10T21:30:30.053Z,6.40
2019-04-10T21:33:58.236Z,6.40
2019-04-10T21:37:22.261Z,6.40
2019-04-10T21:40:47.323Z,6.40
2019-04-10T21:44:12.718Z,6.30
2019-04-10T21:47:37.661Z,6.30
2019-04-10T21:51:02.634Z,6.20
2019-04-10T21:54:27.050Z,6.20
2019-04-10T21:57:51.056Z,6.10
2019-04-10T22:01:15.680Z,6.10
2019-04-10T22:04:41.397Z,6.00
2019-04-10T22:08:12.739Z,6.00
2019-04-10T22:16:01.783Z,5.80
2019-04-10T22:19:26.324Z,5.80
2019-04-10T22:22:51.298Z,5.80
2019-04-10T22:26:15.793Z,5.70
2019-04-10T22:29:39.687Z,5.70
2019-04-10T22:33:03.663Z,5.60
2019-04-10T22:36:27.644Z,5.60
2019-04-10T22:39:52.578Z,5.60
2019-04-10T22:43:16.738Z,5.50
2019-04-10T22:46:40.526Z,5.50
2019-04-10T22:50:05.005Z,5.40
2019-04-10T22:53:28.992Z,5.40
2019-04-10T22:56:52.851Z,5.20
2019-04-10T23:00:22.297Z,5.20
2019-04-10T23:03:47.332Z,5.20
2019-04-10T23:07:11.560Z,5.10
2019-04-10T23:10:35.529Z,5.00
2019-04-10T23:14:00.435Z,4.90
2019-04-10T23:17:24.542Z,5.00
2019-04-10T23:20:48.379Z,4.90
2019-04-10T23:24:12.173Z,4.80
2019-04-10T23:27:36.112Z,4.80
2019-04-10T23:31:01.358Z,4.70
2019-04-10T23:34:25.407Z,4.70
2019-04-10T23:37:49.162Z,4.60
2019-04-10T23:41:13.658Z,4.50
2019-04-10T23:44:37.823Z,4.30
2019-04-10T23:48:01.581Z,4.30
2019-04-10T23:51:25.423Z,4.20
2019-04-10T23:54:49.401Z,4.10
2019-04-10T23:58:13.898Z,4.10
